sensor_id;sensor_type;location;lat;lon;timestamp;P1;durP1;ratioP1;P2;durP2;ratioP2
20865;SDS011;10593;48.398;10.698;2023-03-13T00:03:47;1.50;;;1.30;;
20865;SDS011;10593;48.398;10.698;2023-03-13T00:06:13;2.30;;;1.20;;
20865;SDS011;10593;48.398;10.698;2023-03-13T00:08:40;2.47;;;1.20;;
20865;SDS011;10593;48.398;10.698;2023-03-13T00:11:08;1.40;;;1.10;;
20865;SDS011;10593;48.398;10.698;2023-03-13T00:13:36;1.53;;;1.20;;
20865;SDS011;10593;48.398;10.698;2023-03-13T00:16:02;1.20;;;1.10;;
20865;SDS011;10593;48.398;10.698;2023-03-13T00:18:34;1.67;;;1.40;;
20865;SDS011;10593;48.398;10.698;2023-03-13T00:21:00;1.47;;;1.20;;
20865;SDS011;10593;48.398;10.698;2023-03-13T00:23:32;2.07;;;1.30;;
20865;SDS011;10593;48.398;10.698;2023-03-13T00:26:00;1.40;;;1.30;;
20865;SDS011;10593;48.398;10.698;2023-03-13T00:28:31;1.23;;;1.13;;
20865;SDS011;10593;48.398;10.698;2023-03-13T00:31:09;1.40;;;1.30;;
20865;SDS011;10593;48.398;10.698;2023-03-13T00:33:40;1.67;;;1.43;;
20865;SDS011;10593;48.398;10.698;2023-03-13T00:36:15;1.93;;;1.40;;
20865;SDS011;10593;48.398;10.698;2023-03-13T00:38:47;1.40;;;1.20;;
20865;SDS011;10593;48.398;10.698;2023-03-13T00:41:15;1.20;;;1.10;;
20865;SDS011;10593;48.398;10.698;2023-03-13T00:43:44;1.20;;;1.10;;
20865;SDS011;10593;48.398;10.698;2023-03-13T00:46:12;1.50;;;1.20;;
20865;SDS011;10593;48.398;10.698;2023-03-13T00:48:40;1.60;;;1.13;;
20865;SDS011;10593;48.398;10.698;2023-03-13T00:51:06;2.47;;;1.30;;
20865;SDS011;10593;48.398;10.698;2023-03-13T00:53:32;1.70;;;1.27;;
20865;SDS011;10593;48.398;10.698;2023-03-13T00:55:59;1.50;;;1.33;;
20865;SDS011;10593;48.398;10.698;2023-03-13T00:58:29;1.20;;;1.17;;
20865;SDS011;10593;48.398;10.698;2023-03-13T01:01:04;1.40;;;1.30;;
20865;SDS011;10593;48.398;10.698;2023-03-13T01:03:36;1.40;;;1.23;;
20865;SDS011;10593;48.398;10.698;2023-03-13T01:06:05;1.30;;;1.20;;
20865;SDS011;10593;48.398;10.698;2023-03-13T01:08:33;2.17;;;1.30;;
20865;SDS011;10593;48.398;10.698;2023-03-13T01:11:00;2.10;;;1.37;;
20865;SDS011;10593;48.398;10.698;2023-03-13T01:13:32;1.53;;;1.43;;
20865;SDS011;10593;48.398;10.698;2023-03-13T01:16:32;2.40;;;1.67;;
20865;SDS011;10593;48.398;10.698;2023-03-13T01:18:54;1.27;;;1.17;;
20865;SDS011;10593;48.398;10.698;2023-03-13T01:21:24;1.40;;;1.30;;
20865;SDS011;10593;48.398;10.698;2023-03-13T01:23:51;1.80;;;1.10;;
20865;SDS011;10593;48.398;10.698;2023-03-13T01:26:18;1.50;;;1.40;;
20865;SDS011;10593;48.398;10.698;2023-03-13T01:28:45;1.43;;;1.33;;
20865;SDS011;10593;48.398;10.698;2023-03-13T01:33:47;1.30;;;1.20;;
20865;SDS011;10593;48.398;10.698;2023-03-13T01:36:16;2.23;;;1.73;;
20865;SDS011;10593;48.398;10.698;2023-03-13T01:38:43;1.40;;;1.23;;
20865;SDS011;10593;48.398;10.698;2023-03-13T01:41:12;1.40;;;1.30;;
20865;SDS011;10593;48.398;10.698;2023-03-13T01:43:38;1.73;;;1.43;;
20865;SDS011;10593;48.398;10.698;2023-03-13T01:48:48;3.43;;;1.23;;
20865;SDS011;10593;48.398;10.698;2023-03-13T01:56:47;1.20;;;1.10;;
20865;SDS011;10593;48.398;10.698;2023-03-13T01:59:43;2.80;;;1.53;;
20865;SDS011;10593;48.398;10.698;2023-03-13T02:02:17;1.57;;;1.07;;
20865;SDS011;10593;48.398;10.698;2023-03-13T02:04:44;1.30;;;1.20;;
20865;SDS011;10593;48.398;10.698;2023-03-13T02:07:17;1.67;;;1.23;;
20865;SDS011;10593;48.398;10.698;2023-03-13T02:09:52;0.90;;;0.90;;
20865;SDS011;10593;48.398;10.698;2023-03-13T02:12:30;0.90;;;0.90;;
20865;SDS011;10593;48.398;10.698;2023-03-13T02:15:00;2.07;;;1.43;;
20865;SDS011;10593;48.398;10.698;2023-03-13T02:17:35;1.97;;;1.60;;
20865;SDS011;10593;48.398;10.698;2023-03-13T02:20:02;3.47;;;1.40;;
20865;SDS011;10593;48.398;10.698;2023-03-13T02:22:38;1.37;;;1.00;;
20865;SDS011;10593;48.398;10.698;2023-03-13T02:27:48;1.90;;;1.30;;
20865;SDS011;10593;48.398;10.698;2023-03-13T02:30:21;1.43;;;1.07;;
20865;SDS011;10593;48.398;10.698;2023-03-13T02:32:47;1.93;;;1.10;;
20865;SDS011;10593;48.398;10.698;2023-03-13T02:35:15;1.10;;;1.10;;
20865;SDS011;10593;48.398;10.698;2023-03-13T02:37:47;2.07;;;1.30;;
20865;SDS011;10593;48.398;10.698;2023-03-13T02:40:20;1.13;;;1.00;;
20865;SDS011;10593;48.398;10.698;2023-03-13T02:42:52;1.47;;;1.30;;
20865;SDS011;10593;48.398;10.698;2023-03-13T02:45:20;1.60;;;1.13;;
20865;SDS011;10593;48.398;10.698;2023-03-13T02:47:46;0.73;;;0.73;;
20865;SDS011;10593;48.398;10.698;2023-03-13T02:50:12;2.73;;;1.20;;
20865;SDS011;10593;48.398;10.698;2023-03-13T02:52:40;0.90;;;0.90;;
20865;SDS011;10593;48.398;10.698;2023-03-13T02:55:15;1.10;;;1.00;;
20865;SDS011;10593;48.398;10.698;2023-03-13T02:57:58;0.80;;;0.80;;
20865;SDS011;10593;48.398;10.698;2023-03-13T03:00:24;0.67;;;0.67;;
20865;SDS011;10593;48.398;10.698;2023-03-13T03:02:51;1.37;;;0.90;;
20865;SDS011;10593;48.398;10.698;2023-03-13T03:05:18;1.00;;;1.00;;
20865;SDS011;10593;48.398;10.698;2023-03-13T03:07:44;0.97;;;0.63;;
20865;SDS011;10593;48.398;10.698;2023-03-13T03:10:11;0.93;;;0.80;;
20865;SDS011;10593;48.398;10.698;2023-03-13T03:12:36;1.57;;;0.93;;
20865;SDS011;10593;48.398;10.698;2023-03-13T03:15:02;1.43;;;0.83;;
20865;SDS011;10593;48.398;10.698;2023-03-13T03:17:29;0.87;;;0.80;;
20865;SDS011;10593;48.398;10.698;2023-03-13T03:19:55;1.47;;;0.90;;
20865;SDS011;10593;48.398;10.698;2023-03-13T03:22:21;0.77;;;0.77;;
20865;SDS011;10593;48.398;10.698;2023-03-13T03:24:47;0.50;;;0.50;;
20865;SDS011;10593;48.398;10.698;2023-03-13T03:27:12;0.80;;;0.80;;
20865;SDS011;10593;48.398;10.698;2023-03-13T03:29:38;1.07;;;0.77;;
20865;SDS011;10593;48.398;10.698;2023-03-13T03:32:04;0.63;;;0.53;;
20865;SDS011;10593;48.398;10.698;2023-03-13T03:34:30;1.17;;;0.63;;
20865;SDS011;10593;48.398;10.698;2023-03-13T03:36:56;1.40;;;1.20;;
20865;SDS011;10593;48.398;10.698;2023-03-13T03:39:22;1.10;;;0.80;;
20865;SDS011;10593;48.398;10.698;2023-03-13T03:41:47;0.93;;;0.70;;
20865;SDS011;10593;48.398;10.698;2023-03-13T03:44:13;0.83;;;0.70;;
20865;SDS011;10593;48.398;10.698;2023-03-13T03:46:39;0.70;;;0.70;;
20865;SDS011;10593;48.398;10.698;2023-03-13T03:49:04;0.97;;;0.70;;
20865;SDS011;10593;48.398;10.698;2023-03-13T03:51:30;1.23;;;0.60;;
20865;SDS011;10593;48.398;10.698;2023-03-13T03:53:56;2.43;;;1.03;;
20865;SDS011;10593;48.398;10.698;2023-03-13T03:56:21;0.93;;;0.70;;
20865;SDS011;10593;48.398;10.698;2023-03-13T03:58:47;0.90;;;0.90;;
20865;SDS011;10593;48.398;10.698;2023-03-13T04:01:13;1.43;;;0.70;;
20865;SDS011;10593;48.398;10.698;2023-03-13T04:03:38;0.60;;;0.60;;
20865;SDS011;10593;48.398;10.698;2023-03-13T04:06:04;1.20;;;0.90;;
20865;SDS011;10593;48.398;10.698;2023-03-13T04:08:31;0.80;;;0.60;;
20865;SDS011;10593;48.398;10.698;2023-03-13T04:10:57;1.00;;;0.80;;
20865;SDS011;10593;48.398;10.698;2023-03-13T04:13:25;0.63;;;0.60;;
20865;SDS011;10593;48.398;10.698;2023-03-13T04:15:51;0.90;;;0.80;;
20865;SDS011;10593;48.398;10.698;2023-03-13T04:18:17;2.30;;;1.17;;
20865;SDS011;10593;48.398;10.698;2023-03-13T04:20:42;1.07;;;0.70;;
20865;SDS011;10593;48.398;10.698;2023-03-13T04:23:08;0.60;;;0.60;;
20865;SDS011;10593;48.398;10.698;2023-03-13T04:25:34;0.60;;;0.60;;
20865;SDS011;10593;48.398;10.698;2023-03-13T04:28:00;1.10;;;0.70;;
20865;SDS011;10593;48.398;10.698;2023-03-13T04:30:25;2.30;;;0.80;;
20865;SDS011;10593;48.398;10.698;2023-03-13T04:32:51;0.50;;;0.50;;
20865;SDS011;10593;48.398;10.698;2023-03-13T04:35:17;1.57;;;0.80;;
20865;SDS011;10593;48.398;10.698;2023-03-13T04:37:43;1.03;;;0.70;;
20865;SDS011;10593;48.398;10.698;2023-03-13T04:40:09;0.60;;;0.60;;
20865;SDS011;10593;48.398;10.698;2023-03-13T04:42:36;0.73;;;0.70;;
20865;SDS011;10593;48.398;10.698;2023-03-13T04:45:02;0.80;;;0.77;;
20865;SDS011;10593;48.398;10.698;2023-03-13T04:47:28;0.90;;;0.90;;
20865;SDS011;10593;48.398;10.698;2023-03-13T04:49:54;1.37;;;0.90;;
20865;SDS011;10593;48.398;10.698;2023-03-13T04:52:19;0.83;;;0.83;;
20865;SDS011;10593;48.398;10.698;2023-03-13T04:54:45;1.17;;;1.07;;
20865;SDS011;10593;48.398;10.698;2023-03-13T04:57:10;1.30;;;1.20;;
20865;SDS011;10593;48.398;10.698;2023-03-13T04:59:36;1.33;;;0.97;;
20865;SDS011;10593;48.398;10.698;2023-03-13T05:02:02;0.97;;;0.70;;
20865;SDS011;10593;48.398;10.698;2023-03-13T05:04:27;0.60;;;0.60;;
20865;SDS011;10593;48.398;10.698;2023-03-13T05:06:53;0.57;;;0.57;;
20865;SDS011;10593;48.398;10.698;2023-03-13T05:09:18;1.23;;;0.80;;
20865;SDS011;10593;48.398;10.698;2023-03-13T05:11:44;1.63;;;1.10;;
20865;SDS011;10593;48.398;10.698;2023-03-13T05:14:10;1.07;;;0.70;;
20865;SDS011;10593;48.398;10.698;2023-03-13T05:16:36;0.60;;;0.60;;
20865;SDS011;10593;48.398;10.698;2023-03-13T05:19:02;3.80;;;1.10;;
20865;SDS011;10593;48.398;10.698;2023-03-13T05:21:28;1.13;;;1.03;;
20865;SDS011;10593;48.398;10.698;2023-03-13T05:23:54;1.40;;;0.70;;
20865;SDS011;10593;48.398;10.698;2023-03-13T05:26:19;0.97;;;0.60;;
20865;SDS011;10593;48.398;10.698;2023-03-13T05:28:45;2.20;;;0.90;;
20865;SDS011;10593;48.398;10.698;2023-03-13T05:31:10;1.40;;;0.67;;
20865;SDS011;10593;48.398;10.698;2023-03-13T05:33:36;0.70;;;0.70;;
20865;SDS011;10593;48.398;10.698;2023-03-13T05:36:02;0.67;;;0.67;;
20865;SDS011;10593;48.398;10.698;2023-03-13T05:38:28;0.80;;;0.80;;
20865;SDS011;10593;48.398;10.698;2023-03-13T05:40:54;1.33;;;0.70;;
20865;SDS011;10593;48.398;10.698;2023-03-13T05:43:19;0.77;;;0.77;;
20865;SDS011;10593;48.398;10.698;2023-03-13T05:45:45;1.40;;;0.70;;
20865;SDS011;10593;48.398;10.698;2023-03-13T05:48:10;3.23;;;1.00;;
20865;SDS011;10593;48.398;10.698;2023-03-13T05:50:36;0.60;;;0.60;;
20865;SDS011;10593;48.398;10.698;2023-03-13T05:53:02;0.47;;;0.47;;
20865;SDS011;10593;48.398;10.698;2023-03-13T05:55:27;0.60;;;0.53;;
20865;SDS011;10593;48.398;10.698;2023-03-13T05:57:53;0.63;;;0.60;;
20865;SDS011;10593;48.398;10.698;2023-03-13T06:00:19;2.00;;;0.70;;
20865;SDS011;10593;48.398;10.698;2023-03-13T06:02:45;0.60;;;0.50;;
20865;SDS011;10593;48.398;10.698;2023-03-13T06:05:10;0.90;;;0.90;;
20865;SDS011;10593;48.398;10.698;2023-03-13T06:07:36;0.80;;;0.70;;
20865;SDS011;10593;48.398;10.698;2023-03-13T06:10:02;0.53;;;0.53;;
20865;SDS011;10593;48.398;10.698;2023-03-13T06:12:29;0.93;;;0.43;;
20865;SDS011;10593;48.398;10.698;2023-03-13T06:14:55;1.30;;;1.00;;
20865;SDS011;10593;48.398;10.698;2023-03-13T06:17:21;0.60;;;0.50;;
20865;SDS011;10593;48.398;10.698;2023-03-13T06:19:46;4.20;;;0.70;;
20865;SDS011;10593;48.398;10.698;2023-03-13T06:22:12;1.10;;;0.77;;
20865;SDS011;10593;48.398;10.698;2023-03-13T06:24:40;0.73;;;0.73;;
20865;SDS011;10593;48.398;10.698;2023-03-13T06:27:08;0.90;;;0.60;;
20865;SDS011;10593;48.398;10.698;2023-03-13T06:29:34;1.00;;;1.00;;
20865;SDS011;10593;48.398;10.698;2023-03-13T06:32:00;0.60;;;0.60;;
20865;SDS011;10593;48.398;10.698;2023-03-13T06:34:26;0.87;;;0.80;;
20865;SDS011;10593;48.398;10.698;2023-03-13T06:36:51;1.10;;;1.00;;
20865;SDS011;10593;48.398;10.698;2023-03-13T06:39:17;0.80;;;0.80;;
20865;SDS011;10593;48.398;10.698;2023-03-13T06:41:43;1.10;;;1.00;;
20865;SDS011;10593;48.398;10.698;2023-03-13T06:44:08;0.53;;;0.53;;
20865;SDS011;10593;48.398;10.698;2023-03-13T06:46:34;0.50;;;0.50;;
20865;SDS011;10593;48.398;10.698;2023-03-13T06:48:59;1.67;;;0.97;;
20865;SDS011;10593;48.398;10.698;2023-03-13T06:51:28;0.50;;;0.50;;
20865;SDS011;10593;48.398;10.698;2023-03-13T06:53:54;0.90;;;0.90;;
20865;SDS011;10593;48.398;10.698;2023-03-13T06:56:20;1.30;;;1.23;;
20865;SDS011;10593;48.398;10.698;2023-03-13T06:58:46;0.80;;;0.80;;
20865;SDS011;10593;48.398;10.698;2023-03-13T07:01:13;1.00;;;1.00;;
20865;SDS011;10593;48.398;10.698;2023-03-13T07:03:41;1.47;;;1.17;;
20865;SDS011;10593;48.398;10.698;2023-03-13T07:06:07;1.80;;;1.70;;
20865;SDS011;10593;48.398;10.698;2023-03-13T07:08:35;2.10;;;1.90;;
20865;SDS011;10593;48.398;10.698;2023-03-13T07:11:02;1.83;;;1.73;;
20865;SDS011;10593;48.398;10.698;2023-03-13T07:13:32;2.33;;;1.37;;
20865;SDS011;10593;48.398;10.698;2023-03-13T07:15:58;1.40;;;1.30;;
20865;SDS011;10593;48.398;10.698;2023-03-13T07:18:29;1.23;;;1.20;;
20865;SDS011;10593;48.398;10.698;2023-03-13T07:20:56;1.30;;;1.20;;
20865;SDS011;10593;48.398;10.698;2023-03-13T07:23:24;1.10;;;1.10;;
20865;SDS011;10593;48.398;10.698;2023-03-13T07:25:53;0.90;;;0.90;;
20865;SDS011;10593;48.398;10.698;2023-03-13T07:28:24;1.27;;;1.00;;
20865;SDS011;10593;48.398;10.698;2023-03-13T07:30:52;0.63;;;0.63;;
20865;SDS011;10593;48.398;10.698;2023-03-13T07:33:18;1.23;;;0.50;;
20865;SDS011;10593;48.398;10.698;2023-03-13T07:35:47;0.90;;;0.90;;
20865;SDS011;10593;48.398;10.698;2023-03-13T07:38:15;2.53;;;1.03;;
20865;SDS011;10593;48.398;10.698;2023-03-13T07:40:48;1.00;;;0.67;;
20865;SDS011;10593;48.398;10.698;2023-03-13T07:43:16;0.70;;;0.70;;
20865;SDS011;10593;48.398;10.698;2023-03-13T07:46:15;1.67;;;0.83;;
20865;SDS011;10593;48.398;10.698;2023-03-13T07:48:38;0.70;;;0.70;;
20865;SDS011;10593;48.398;10.698;2023-03-13T07:51:10;0.73;;;0.73;;
20865;SDS011;10593;48.398;10.698;2023-03-13T07:53:45;0.70;;;0.70;;
20865;SDS011;10593;48.398;10.698;2023-03-13T07:56:12;1.00;;;0.73;;
20865;SDS011;10593;48.398;10.698;2023-03-13T07:58:41;0.67;;;0.67;;
20865;SDS011;10593;48.398;10.698;2023-03-13T08:01:08;0.83;;;0.77;;
20865;SDS011;10593;48.398;10.698;2023-03-13T08:03:40;1.30;;;1.20;;
20865;SDS011;10593;48.398;10.698;2023-03-13T08:06:11;1.37;;;0.83;;
20865;SDS011;10593;48.398;10.698;2023-03-13T08:08:39;1.10;;;1.00;;
20865;SDS011;10593;48.398;10.698;2023-03-13T08:11:09;1.13;;;1.03;;
20865;SDS011;10593;48.398;10.698;2023-03-13T08:13:41;0.87;;;0.87;;
20865;SDS011;10593;48.398;10.698;2023-03-13T08:16:09;0.90;;;0.83;;
20865;SDS011;10593;48.398;10.698;2023-03-13T08:18:39;1.53;;;0.80;;
20865;SDS011;10593;48.398;10.698;2023-03-13T08:21:15;0.60;;;0.60;;
20865;SDS011;10593;48.398;10.698;2023-03-13T08:23:47;0.80;;;0.80;;
20865;SDS011;10593;48.398;10.698;2023-03-13T08:26:17;1.27;;;0.70;;
20865;SDS011;10593;48.398;10.698;2023-03-13T08:28:45;0.67;;;0.67;;
20865;SDS011;10593;48.398;10.698;2023-03-13T08:31:21;0.60;;;0.60;;
20865;SDS011;10593;48.398;10.698;2023-03-13T08:33:52;0.90;;;0.90;;
20865;SDS011;10593;48.398;10.698;2023-03-13T08:36:22;0.80;;;0.80;;
20865;SDS011;10593;48.398;10.698;2023-03-13T08:38:57;0.83;;;0.83;;
20865;SDS011;10593;48.398;10.698;2023-03-13T08:41:26;0.73;;;0.73;;
20865;SDS011;10593;48.398;10.698;2023-03-13T08:43:56;0.67;;;0.60;;
20865;SDS011;10593;48.398;10.698;2023-03-13T08:46:22;0.60;;;0.60;;
20865;SDS011;10593;48.398;10.698;2023-03-13T08:48:49;0.60;;;0.60;;
20865;SDS011;10593;48.398;10.698;2023-03-13T08:51:17;0.83;;;0.80;;
20865;SDS011;10593;48.398;10.698;2023-03-13T08:53:45;0.80;;;0.73;;
20865;SDS011;10593;48.398;10.698;2023-03-13T08:56:13;0.87;;;0.83;;
20865;SDS011;10593;48.398;10.698;2023-03-13T08:58:42;0.77;;;0.73;;
20865;SDS011;10593;48.398;10.698;2023-03-13T09:01:09;1.30;;;1.20;;
20865;SDS011;10593;48.398;10.698;2023-03-13T09:03:38;1.27;;;1.17;;
20865;SDS011;10593;48.398;10.698;2023-03-13T09:06:04;0.90;;;0.87;;
20865;SDS011;10593;48.398;10.698;2023-03-13T09:08:31;2.23;;;0.73;;
20865;SDS011;10593;48.398;10.698;2023-03-13T09:10:59;0.70;;;0.70;;
20865;SDS011;10593;48.398;10.698;2023-03-13T09:13:28;0.77;;;0.77;;
20865;SDS011;10593;48.398;10.698;2023-03-13T09:15:56;0.70;;;0.70;;
20865;SDS011;10593;48.398;10.698;2023-03-13T09:18:25;2.23;;;0.60;;
20865;SDS011;10593;48.398;10.698;2023-03-13T09:20:52;0.40;;;0.30;;
20865;SDS011;10593;48.398;10.698;2023-03-13T09:23:18;0.37;;;0.37;;
20865;SDS011;10593;48.398;10.698;2023-03-13T09:25:44;0.43;;;0.40;;
20865;SDS011;10593;48.398;10.698;2023-03-13T09:28:11;0.40;;;0.40;;
20865;SDS011;10593;48.398;10.698;2023-03-13T09:30:36;0.87;;;0.77;;
20865;SDS011;10593;48.398;10.698;2023-03-13T09:33:02;1.10;;;0.90;;
20865;SDS011;10593;48.398;10.698;2023-03-13T09:35:28;1.63;;;1.20;;
20865;SDS011;10593;48.398;10.698;2023-03-13T09:37:54;1.17;;;1.07;;
20865;SDS011;10593;48.398;10.698;2023-03-13T09:40:20;0.87;;;0.87;;
20865;SDS011;10593;48.398;10.698;2023-03-13T09:42:48;0.70;;;0.70;;
20865;SDS011;10593;48.398;10.698;2023-03-13T09:48:29;0.43;;;0.43;;
20865;SDS011;10593;48.398;10.698;2023-03-13T09:56:24;0.60;;;0.57;;
20865;SDS011;10593;48.398;10.698;2023-03-13T09:59:05;1.20;;;0.60;;
20865;SDS011;10593;48.398;10.698;2023-03-13T10:01:43;1.53;;;0.60;;
20865;SDS011;10593;48.398;10.698;2023-03-13T10:04:20;0.60;;;0.60;;
20865;SDS011;10593;48.398;10.698;2023-03-13T10:06:55;0.90;;;0.90;;
20865;SDS011;10593;48.398;10.698;2023-03-13T10:09:31;0.60;;;0.60;;
20865;SDS011;10593;48.398;10.698;2023-03-13T10:17:21;0.43;;;0.37;;
20865;SDS011;10593;48.398;10.698;2023-03-13T10:22:59;0.30;;;0.30;;
20865;SDS011;10593;48.398;10.698;2023-03-13T10:25:37;0.67;;;0.40;;
20865;SDS011;10593;48.398;10.698;2023-03-13T10:28:04;0.50;;;0.50;;
20865;SDS011;10593;48.398;10.698;2023-03-13T10:30:35;0.40;;;0.40;;
20865;SDS011;10593;48.398;10.698;2023-03-13T10:35:36;0.63;;;0.57;;
20865;SDS011;10593;48.398;10.698;2023-03-13T10:38:08;0.50;;;0.50;;
20865;SDS011;10593;48.398;10.698;2023-03-13T10:40:55;0.63;;;0.60;;
20865;SDS011;10593;48.398;10.698;2023-03-13T10:43:23;0.53;;;0.43;;
20865;SDS011;10593;48.398;10.698;2023-03-13T10:45:50;1.77;;;1.13;;
20865;SDS011;10593;48.398;10.698;2023-03-13T10:48:24;0.50;;;0.50;;
20865;SDS011;10593;48.398;10.698;2023-03-13T10:50:55;1.17;;;0.73;;
20865;SDS011;10593;48.398;10.698;2023-03-13T10:53:23;0.60;;;0.60;;
20865;SDS011;10593;48.398;10.698;2023-03-13T10:56:09;2.53;;;0.63;;
20865;SDS011;10593;48.398;10.698;2023-03-13T10:58:42;1.10;;;1.00;;
20865;SDS011;10593;48.398;10.698;2023-03-13T11:03:47;0.77;;;0.77;;
20865;SDS011;10593;48.398;10.698;2023-03-13T11:06:33;1.63;;;0.73;;
20865;SDS011;10593;48.398;10.698;2023-03-13T11:11:44;1.17;;;0.60;;
20865;SDS011;10593;48.398;10.698;2023-03-13T11:14:19;0.63;;;0.63;;
20865;SDS011;10593;48.398;10.698;2023-03-13T11:16:51;0.80;;;0.80;;
20865;SDS011;10593;48.398;10.698;2023-03-13T11:22:29;0.70;;;0.70;;
20865;SDS011;10593;48.398;10.698;2023-03-13T11:25:20;0.77;;;0.60;;
20865;SDS011;10593;48.398;10.698;2023-03-13T11:28:00;1.00;;;0.70;;
20865;SDS011;10593;48.398;10.698;2023-03-13T11:31:02;0.67;;;0.67;;
20865;SDS011;10593;48.398;10.698;2023-03-13T11:48:02;0.57;;;0.57;;
20865;SDS011;10593;48.398;10.698;2023-03-13T11:51:20;0.40;;;0.40;;
20865;SDS011;10593;48.398;10.698;2023-03-13T11:56:57;0.60;;;0.60;;
20865;SDS011;10593;48.398;10.698;2023-03-13T12:02:30;0.70;;;0.70;;
20865;SDS011;10593;48.398;10.698;2023-03-13T12:05:20;1.50;;;0.77;;
20865;SDS011;10593;48.398;10.698;2023-03-13T12:10:32;1.07;;;0.97;;
20865;SDS011;10593;48.398;10.698;2023-03-13T12:13:21;1.03;;;1.03;;
20865;SDS011;10593;48.398;10.698;2023-03-13T12:15:55;1.57;;;0.90;;
20865;SDS011;10593;48.398;10.698;2023-03-13T12:18:31;0.70;;;0.70;;
20865;SDS011;10593;48.398;10.698;2023-03-13T12:21:17;1.57;;;0.60;;
20865;SDS011;10593;48.398;10.698;2023-03-13T12:26:45;0.87;;;0.83;;
20865;SDS011;10593;48.398;10.698;2023-03-13T12:32:10;0.70;;;0.70;;
20865;SDS011;10593;48.398;10.698;2023-03-13T12:35:06;0.90;;;0.90;;
20865;SDS011;10593;48.398;10.698;2023-03-13T12:40:37;0.87;;;0.73;;
20865;SDS011;10593;48.398;10.698;2023-03-13T12:51:32;1.23;;;1.00;;
20865;SDS011;10593;48.398;10.698;2023-03-13T13:00:02;1.03;;;0.90;;
20865;SDS011;10593;48.398;10.698;2023-03-13T13:02:39;1.70;;;1.00;;
20865;SDS011;10593;48.398;10.698;2023-03-13T13:05:05;0.80;;;0.70;;
20865;SDS011;10593;48.398;10.698;2023-03-13T13:07:43;0.87;;;0.87;;
20865;SDS011;10593;48.398;10.698;2023-03-13T13:10:24;0.87;;;0.77;;
20865;SDS011;10593;48.398;10.698;2023-03-13T13:15:59;0.97;;;0.80;;
20865;SDS011;10593;48.398;10.698;2023-03-13T13:18:32;2.10;;;1.00;;
20865;SDS011;10593;48.398;10.698;2023-03-13T13:29:00;0.90;;;0.70;;
20865;SDS011;10593;48.398;10.698;2023-03-13T13:36:58;0.83;;;0.80;;
20865;SDS011;10593;48.398;10.698;2023-03-13T13:39:45;0.70;;;0.70;;
20865;SDS011;10593;48.398;10.698;2023-03-13T13:44:57;0.70;;;0.70;;
20865;SDS011;10593;48.398;10.698;2023-03-13T13:47:38;1.87;;;0.97;;
20865;SDS011;10593;48.398;10.698;2023-03-13T13:52:56;0.83;;;0.73;;
20865;SDS011;10593;48.398;10.698;2023-03-13T13:55:54;1.60;;;0.80;;
20865;SDS011;10593;48.398;10.698;2023-03-13T13:58:23;1.23;;;0.70;;
20865;SDS011;10593;48.398;10.698;2023-03-13T14:00:54;0.90;;;0.90;;
20865;SDS011;10593;48.398;10.698;2023-03-13T14:03:26;0.67;;;0.67;;
20865;SDS011;10593;48.398;10.698;2023-03-13T14:05:59;0.70;;;0.70;;
20865;SDS011;10593;48.398;10.698;2023-03-13T14:08:40;1.13;;;0.60;;
20865;SDS011;10593;48.398;10.698;2023-03-13T14:13:38;0.67;;;0.50;;
20865;SDS011;10593;48.398;10.698;2023-03-13T14:18:51;0.83;;;0.73;;
20865;SDS011;10593;48.398;10.698;2023-03-13T14:21:21;0.57;;;0.57;;
20865;SDS011;10593;48.398;10.698;2023-03-13T14:23:48;0.63;;;0.63;;
20865;SDS011;10593;48.398;10.698;2023-03-13T14:26:18;1.03;;;0.90;;
20865;SDS011;10593;48.398;10.698;2023-03-13T14:28:57;1.60;;;0.60;;
20865;SDS011;10593;48.398;10.698;2023-03-13T14:31:29;0.60;;;0.60;;
20865;SDS011;10593;48.398;10.698;2023-03-13T14:34:02;0.50;;;0.40;;
20865;SDS011;10593;48.398;10.698;2023-03-13T14:36:44;1.53;;;0.63;;
20865;SDS011;10593;48.398;10.698;2023-03-13T14:39:19;0.40;;;0.40;;
20865;SDS011;10593;48.398;10.698;2023-03-13T14:41:54;0.40;;;0.40;;
20865;SDS011;10593;48.398;10.698;2023-03-13T14:44:33;0.53;;;0.53;;
20865;SDS011;10593;48.398;10.698;2023-03-13T14:47:00;1.30;;;0.33;;
20865;SDS011;10593;48.398;10.698;2023-03-13T14:49:44;0.73;;;0.60;;
20865;SDS011;10593;48.398;10.698;2023-03-13T14:52:24;0.57;;;0.57;;
20865;SDS011;10593;48.398;10.698;2023-03-13T14:54:56;1.40;;;0.53;;
20865;SDS011;10593;48.398;10.698;2023-03-13T14:58:03;1.30;;;0.43;;
20865;SDS011;10593;48.398;10.698;2023-03-13T15:00:49;0.50;;;0.50;;
20865;SDS011;10593;48.398;10.698;2023-03-13T15:06:26;0.40;;;0.40;;
20865;SDS011;10593;48.398;10.698;2023-03-13T15:08:36;0.60;;;0.43;;
20865;SDS011;10593;48.398;10.698;2023-03-13T15:11:19;0.67;;;0.53;;
20865;SDS011;10593;48.398;10.698;2023-03-13T15:13:53;1.20;;;0.43;;
20865;SDS011;10593;48.398;10.698;2023-03-13T15:16:24;1.27;;;0.73;;
20865;SDS011;10593;48.398;10.698;2023-03-13T15:18:52;0.63;;;0.40;;
20865;SDS011;10593;48.398;10.698;2023-03-13T15:23:57;0.57;;;0.53;;
20865;SDS011;10593;48.398;10.698;2023-03-13T15:26:26;0.50;;;0.40;;
20865;SDS011;10593;48.398;10.698;2023-03-13T15:28:53;0.90;;;0.40;;
20865;SDS011;10593;48.398;10.698;2023-03-13T15:31:19;0.30;;;0.30;;
20865;SDS011;10593;48.398;10.698;2023-03-13T15:33:56;0.30;;;0.30;;
20865;SDS011;10593;48.398;10.698;2023-03-13T15:36:25;0.20;;;0.20;;
20865;SDS011;10593;48.398;10.698;2023-03-13T15:38:52;0.20;;;0.20;;
20865;SDS011;10593;48.398;10.698;2023-03-13T15:41:19;0.20;;;0.20;;
20865;SDS011;10593;48.398;10.698;2023-03-13T15:43:46;0.40;;;0.40;;
20865;SDS011;10593;48.398;10.698;2023-03-13T15:46:16;0.40;;;0.40;;
20865;SDS011;10593;48.398;10.698;2023-03-13T15:48:44;0.73;;;0.60;;
20865;SDS011;10593;48.398;10.698;2023-03-13T15:51:11;0.60;;;0.60;;
20865;SDS011;10593;48.398;10.698;2023-03-13T15:53:40;0.60;;;0.50;;
20865;SDS011;10593;48.398;10.698;2023-03-13T15:56:17;0.30;;;0.23;;
20865;SDS011;10593;48.398;10.698;2023-03-13T15:58:47;0.10;;;0.10;;
20865;SDS011;10593;48.398;10.698;2023-03-13T16:01:16;0.30;;;0.30;;
20865;SDS011;10593;48.398;10.698;2023-03-13T16:03:42;0.33;;;0.33;;
20865;SDS011;10593;48.398;10.698;2023-03-13T16:06:14;1.30;;;0.30;;
20865;SDS011;10593;48.398;10.698;2023-03-13T16:08:52;0.50;;;0.33;;
20865;SDS011;10593;48.398;10.698;2023-03-13T16:11:17;4.07;;;0.53;;
20865;SDS011;10593;48.398;10.698;2023-03-13T16:13:43;0.20;;;0.20;;
20865;SDS011;10593;48.398;10.698;2023-03-13T16:18:49;0.53;;;0.53;;
20865;SDS011;10593;48.398;10.698;2023-03-13T16:21:18;0.57;;;0.40;;
20865;SDS011;10593;48.398;10.698;2023-03-13T16:23:47;0.47;;;0.47;;
20865;SDS011;10593;48.398;10.698;2023-03-13T16:26:14;0.50;;;0.50;;
20865;SDS011;10593;48.398;10.698;2023-03-13T16:28:44;0.30;;;0.30;;
20865;SDS011;10593;48.398;10.698;2023-03-13T16:31:15;0.23;;;0.23;;
20865;SDS011;10593;48.398;10.698;2023-03-13T16:33:51;0.40;;;0.40;;
20865;SDS011;10593;48.398;10.698;2023-03-13T16:36:19;0.50;;;0.50;;
20865;SDS011;10593;48.398;10.698;2023-03-13T16:38:52;0.30;;;0.30;;
20865;SDS011;10593;48.398;10.698;2023-03-13T16:41:19;0.40;;;0.40;;
20865;SDS011;10593;48.398;10.698;2023-03-13T16:43:48;1.37;;;0.40;;
20865;SDS011;10593;48.398;10.698;2023-03-13T16:46:16;0.23;;;0.23;;
20865;SDS011;10593;48.398;10.698;2023-03-13T16:48:51;0.70;;;0.40;;
20865;SDS011;10593;48.398;10.698;2023-03-13T16:51:18;0.30;;;0.30;;
20865;SDS011;10593;48.398;10.698;2023-03-13T16:53:47;0.40;;;0.40;;
20865;SDS011;10593;48.398;10.698;2023-03-13T16:56:17;0.30;;;0.30;;